createdAt,value
2018-12-15T00:00:08.203Z,989.91
2018-12-15T00:01:08.156Z,989.88
2018-12-15T00:02:08.109Z,989.92
2018-12-15T00:03:08.070Z,989.91
2018-12-15T00:04:08.024Z,989.95
2018-12-15T00:05:07.979Z,989.91
2018-12-15T00:06:07.938Z,989.93
2018-12-15T00:07:07.885Z,989.93
2018-12-15T00:08:07.845Z,989.93
2018-12-15T00:09:07.800Z,989.92
2018-12-15T00:10:07.759Z,989.98
2018-12-15T00:11:07.708Z,989.95
2018-12-15T00:12:07.673Z,989.95
2018-12-15T00:13:07.622Z,989.90
2018-12-15T00:14:07.576Z,989.94
2018-12-15T00:15:07.536Z,989.94
2018-12-15T00:16:07.490Z,989.91
2018-12-15T00:17:07.446Z,989.92
2018-12-15T00:18:07.404Z,989.93
2018-12-15T00:19:07.354Z,989.94
2018-12-15T00:20:07.311Z,989.95
2018-12-15T00:21:07.266Z,989.92
2018-12-15T00:22:07.218Z,989.92
2018-12-15T00:23:07.181Z,989.89
2018-12-15T00:24:07.135Z,989.86
2018-12-15T00:25:07.089Z,989.88
2018-12-15T00:26:07.041Z,989.90
2018-12-15T00:27:07.005Z,989.89
2018-12-15T00:28:06.960Z,989.92
2018-12-15T00:29:06.912Z,989.91
2018-12-15T00:30:06.869Z,989.92
2018-12-15T00:31:06.819Z,989.91
2018-12-15T00:32:06.778Z,989.91
2018-12-15T00:33:06.734Z,989.94
2018-12-15T00:34:06.686Z,989.97
2018-12-15T00:35:06.650Z,989.94
2018-12-15T00:36:06.601Z,989.98
2018-12-15T00:37:06.558Z,990.00
2018-12-15T00:38:06.514Z,990.01
2018-12-15T00:39:06.464Z,989.98
2018-12-15T00:40:06.422Z,989.99
2018-12-15T00:41:06.380Z,989.94
2018-12-15T00:42:06.337Z,989.95
2018-12-15T00:43:06.286Z,989.95
2018-12-15T00:44:06.244Z,989.94
2018-12-15T00:45:06.203Z,989.94
2018-12-15T00:46:06.156Z,989.97
2018-12-15T00:47:06.752Z,989.98
2018-12-15T00:48:06.070Z,989.98
2018-12-15T00:49:06.026Z,990.03
2018-12-15T00:50:05.982Z,990.04
2018-12-15T00:51:05.932Z,990.08
2018-12-15T00:52:05.890Z,990.07
2018-12-15T00:53:05.850Z,990.08
2018-12-15T00:54:05.799Z,990.12
2018-12-15T00:55:05.760Z,990.11
2018-12-15T00:56:05.713Z,990.12
2018-12-15T00:57:05.668Z,990.14
2018-12-15T00:58:05.621Z,990.16
2018-12-15T00:59:05.582Z,990.15
2018-12-15T01:00:05.537Z,990.16
2018-12-15T01:01:05.493Z,990.17
2018-12-15T01:02:05.450Z,990.18
2018-12-15T01:03:05.399Z,990.20
2018-12-15T01:04:05.355Z,990.23
2018-12-15T01:05:05.311Z,990.26
2018-12-15T01:06:05.268Z,990.29
2018-12-15T01:07:05.226Z,990.28
2018-12-15T01:08:05.185Z,990.32
2018-12-15T01:09:05.141Z,990.30
2018-12-15T01:10:05.094Z,990.34
2018-12-15T01:11:05.047Z,990.37
2018-12-15T01:12:05.012Z,990.35
2018-12-15T01:13:04.963Z,990.36
2018-12-15T01:14:04.914Z,990.38
2018-12-15T01:15:04.868Z,990.40
2018-12-15T01:16:04.822Z,990.38
2018-12-15T01:17:04.779Z,990.42
2018-12-15T01:18:04.736Z,990.44
2018-12-15T01:19:04.694Z,990.41
2018-12-15T01:20:04.651Z,990.47
2018-12-15T01:21:04.607Z,990.47
2018-12-15T01:22:04.562Z,990.49
2018-12-15T01:23:04.518Z,990.51
2018-12-15T01:24:04.469Z,990.56
2018-12-15T01:25:04.424Z,990.54
2018-12-15T01:26:04.380Z,990.57
2018-12-15T01:27:04.338Z,990.58
2018-12-15T01:28:04.296Z,990.56
2018-12-15T01:29:04.247Z,990.62
2018-12-15T01:30:04.204Z,990.63
2018-12-15T01:31:04.162Z,990.62
2018-12-15T01:32:04.119Z,990.67
2018-12-15T01:33:04.076Z,990.64
2018-12-15T01:34:04.028Z,990.67
2018-12-15T01:35:03.982Z,990.69
2018-12-15T01:36:03.937Z,990.65
2018-12-15T01:37:03.891Z,990.70
2018-12-15T01:38:03.849Z,990.68
2018-12-15T01:39:03.806Z,990.68
2018-12-15T01:40:03.764Z,990.67
2018-12-15T01:41:03.719Z,990.64
2018-12-15T01:42:03.672Z,990.71
2018-12-15T01:43:03.627Z,990.71
2018-12-15T01:44:03.581Z,990.71
2018-12-15T01:45:03.540Z,990.72
2018-12-15T01:46:04.783Z,990.68
2018-12-15T01:47:03.448Z,990.72
2018-12-15T01:48:03.402Z,990.69
2018-12-15T01:49:03.358Z,990.69
2018-12-15T01:50:03.314Z,990.71
2018-12-15T01:51:03.272Z,990.73
2018-12-15T01:52:03.230Z,990.70
2018-12-15T01:53:03.186Z,990.74
2018-12-15T01:54:03.141Z,990.74
2018-12-15T01:55:03.093Z,990.77
2018-12-15T01:56:03.046Z,990.74
2018-12-15T01:57:03.002Z,990.73
2018-12-15T01:58:02.959Z,990.75
2018-12-15T01:59:02.917Z,990.77
2018-12-15T02:00:02.876Z,990.80
2018-12-15T02:01:02.824Z,990.80
2018-12-15T02:02:02.781Z,990.78
2018-12-15T02:03:02.739Z,990.78
2018-12-15T02:04:02.697Z,990.81
2018-12-15T02:05:02.666Z,990.81
2018-12-15T02:06:02.606Z,990.85
2018-12-15T02:07:02.560Z,990.84
2018-12-15T02:08:02.512Z,990.85
2018-12-15T02:09:02.470Z,990.81
2018-12-15T02:10:02.426Z,990.81
2018-12-15T02:11:02.384Z,990.81
2018-12-15T02:12:02.341Z,990.78
2018-12-15T02:13:02.297Z,990.78
2018-12-15T02:14:02.249Z,990.79
2018-12-15T02:15:02.203Z,990.76
2018-12-15T02:16:02.157Z,990.72
2018-12-15T02:17:02.120Z,990.77
2018-12-15T02:18:02.076Z,990.74
2018-12-15T02:19:02.025Z,990.71
2018-12-15T02:20:01.979Z,990.74
2018-12-15T02:21:01.933Z,990.75
2018-12-15T02:22:01.890Z,990.74
2018-12-15T02:23:01.848Z,990.74
2018-12-15T02:24:01.806Z,990.72
2018-12-15T02:25:01.764Z,990.72
2018-12-15T02:26:01.715Z,990.70
2018-12-15T02:27:01.668Z,990.70
2018-12-15T02:28:01.622Z,990.69
2018-12-15T02:29:01.579Z,990.68
2018-12-15T02:30:01.537Z,990.71
2018-12-15T02:31:01.496Z,990.67
2018-12-15T02:32:01.452Z,990.67
2018-12-15T02:33:01.401Z,990.66
2018-12-15T02:34:01.374Z,990.63
2018-12-15T02:35:01.324Z,990.62
2018-12-15T02:36:01.280Z,990.60
2018-12-15T02:37:01.228Z,990.59
2018-12-15T02:38:01.181Z,990.62
2018-12-15T02:39:01.147Z,990.60
2018-12-15T02:40:01.091Z,990.66
2018-12-15T02:41:01.046Z,990.64
2018-12-15T02:42:01.000Z,990.70
2018-12-15T02:43:00.959Z,990.67
2018-12-15T02:44:00.917Z,990.67
2018-12-15T02:45:00.872Z,990.66
2018-12-15T02:46:00.825Z,990.66
2018-12-15T02:47:00.781Z,990.57
2018-12-15T02:48:00.734Z,990.58
2018-12-15T02:49:00.695Z,990.56
2018-12-15T02:50:00.647Z,990.52
2018-12-15T02:51:00.601Z,990.56
2018-12-15T02:52:00.556Z,990.55
2018-12-15T02:53:00.511Z,990.51
2018-12-15T02:54:00.467Z,990.51
2018-12-15T02:55:00.423Z,990.49
2018-12-15T02:56:00.383Z,990.48
2018-12-15T02:57:00.446Z,990.43
2018-12-15T02:58:00.310Z,990.41
2018-12-15T02:59:00.243Z,990.38
2018-12-15T03:00:00.315Z,990.40
2018-12-15T03:01:00.152Z,990.35
2018-12-15T03:02:00.107Z,990.41
2018-12-15T03:03:00.066Z,990.39
2018-12-15T03:04:00.024Z,990.38
2018-12-15T03:04:59.975Z,990.39
2018-12-15T03:05:59.931Z,990.37
2018-12-15T03:06:59.885Z,990.35
2018-12-15T03:07:59.844Z,990.40
2018-12-15T03:08:59.801Z,990.39
2018-12-15T03:09:59.754Z,990.43
2018-12-15T03:10:59.707Z,990.41
2018-12-15T03:11:59.661Z,990.38
2018-12-15T03:12:59.617Z,990.38
2018-12-15T03:13:59.573Z,990.36
2018-12-15T03:14:59.530Z,990.34
2018-12-15T03:15:59.488Z,990.33
2018-12-15T03:16:59.445Z,990.33
2018-12-15T03:17:59.396Z,990.30
2018-12-15T03:18:59.354Z,990.32
2018-12-15T03:19:59.303Z,990.31
2018-12-15T03:20:59.266Z,990.30
2018-12-15T03:21:59.219Z,990.29
2018-12-15T03:22:59.173Z,990.30
2018-12-15T03:23:59.131Z,990.30
2018-12-15T03:24:59.084Z,990.31
2018-12-15T03:25:59.038Z,990.32
2018-12-15T03:26:58.996Z,990.31
2018-12-15T03:27:58.953Z,990.33
2018-12-15T03:28:58.909Z,990.26
2018-12-15T03:29:58.861Z,990.27
2018-12-15T03:30:58.824Z,990.29
2018-12-15T03:31:58.772Z,990.33
2018-12-15T03:32:58.728Z,990.32
2018-12-15T03:33:58.684Z,990.30
2018-12-15T03:34:58.640Z,990.30
2018-12-15T03:35:58.603Z,990.27
2018-12-15T03:36:58.550Z,990.28
2018-12-15T03:37:58.503Z,990.25
2018-12-15T03:38:58.461Z,990.22
2018-12-15T03:39:58.418Z,990.23
2018-12-15T03:40:58.374Z,990.19
2018-12-15T03:41:58.327Z,990.21
2018-12-15T03:42:58.280Z,990.21
2018-12-15T03:43:58.235Z,990.18
2018-12-15T03:44:58.210Z,990.18
2018-12-15T03:45:58.146Z,990.14
2018-12-15T03:46:58.106Z,990.15
2018-12-15T03:47:58.063Z,990.15
2018-12-15T03:48:58.020Z,990.15
2018-12-15T03:49:57.978Z,990.18
2018-12-15T03:50:57.926Z,990.18
2018-12-15T03:51:57.881Z,990.16
2018-12-15T04:06:55.061Z,990.06
2018-12-15T04:07:54.988Z,990.08
2018-12-15T04:08:54.939Z,990.06
2018-12-15T04:09:54.888Z,990.07
2018-12-15T04:10:54.839Z,990.09
2018-12-15T04:11:54.794Z,990.09
2018-12-15T04:12:54.749Z,990.12
2018-12-15T04:13:54.701Z,990.14
2018-12-15T04:14:54.655Z,990.16
2018-12-15T04:15:54.606Z,990.18
2018-12-15T04:16:54.559Z,990.20
2018-12-15T04:17:54.518Z,990.18
2018-12-15T04:18:54.471Z,990.19
2018-12-15T04:19:54.428Z,990.13
2018-12-15T04:20:54.386Z,990.19
2018-12-15T04:21:54.336Z,990.13
2018-12-15T04:22:54.288Z,990.12
2018-12-15T04:23:54.240Z,990.12
2018-12-15T04:24:54.197Z,990.11
2018-12-15T04:25:54.152Z,990.14
2018-12-15T04:26:54.109Z,990.13
2018-12-15T04:27:54.066Z,990.11
2018-12-15T04:28:54.016Z,990.10
2018-12-15T04:29:53.974Z,990.13
2018-12-15T04:30:53.929Z,990.11
2018-12-15T04:31:53.885Z,990.12
2018-12-15T04:32:53.858Z,990.13
2018-12-15T04:33:53.795Z,990.13
2018-12-15T04:34:53.747Z,990.15
2018-12-15T04:35:53.699Z,990.15
2018-12-15T04:36:53.656Z,990.16
2018-12-15T04:37:53.612Z,990.17
2018-12-15T04:38:53.569Z,990.17
2018-12-15T04:39:53.526Z,990.12
2018-12-15T04:40:53.483Z,990.13
2018-12-15T04:41:53.438Z,990.16
2018-12-15T04:42:53.401Z,990.13
2018-12-15T04:43:53.342Z,990.16
2018-12-15T04:44:53.303Z,990.17
2018-12-15T04:45:53.257Z,990.17
2018-12-15T04:46:53.207Z,990.15
2018-12-15T04:47:53.165Z,990.17
2018-12-15T04:48:53.119Z,990.17
2018-12-15T04:49:53.122Z,990.17
2018-12-15T04:50:53.030Z,990.17
2018-12-15T04:51:52.988Z,990.22
2018-12-15T04:52:52.943Z,990.17
2018-12-15T04:53:52.896Z,990.18
2018-12-15T04:54:52.850Z,990.12
2018-12-15T04:55:52.811Z,990.16
2018-12-15T04:56:52.768Z,990.11
2018-12-15T04:57:52.715Z,990.13
2018-12-15T04:58:52.671Z,990.14
2018-12-15T04:59:52.629Z,990.13
2018-12-15T05:00:52.580Z,990.16
2018-12-15T05:01:52.538Z,990.19
2018-12-15T05:02:52.494Z,990.15
2018-12-15T05:03:52.455Z,990.17
2018-12-15T05:04:52.405Z,990.11
2018-12-15T05:05:52.358Z,990.14
2018-12-15T05:06:52.310Z,990.08
2018-12-15T05:07:52.265Z,990.12
2018-12-15T05:08:52.221Z,990.11
2018-12-15T05:09:52.178Z,990.10
2018-12-15T05:10:52.139Z,990.07
2018-12-15T05:11:52.092Z,990.05
2018-12-15T05:12:52.049Z,990.07
2018-12-15T05:13:52.003Z,990.06
2018-12-15T05:14:51.955Z,990.09
2018-12-15T05:15:51.907Z,990.02
2018-12-15T05:16:51.869Z,990.01
2018-12-15T05:17:51.823Z,989.97
2018-12-15T05:18:51.803Z,990.02
2018-12-15T05:19:51.730Z,990.02
2018-12-15T05:20:51.685Z,989.98
2018-12-15T05:21:51.643Z,989.95
2018-12-15T05:22:51.598Z,989.96
2018-12-15T05:23:51.556Z,990.00
2018-12-15T05:24:51.511Z,989.98
2018-12-15T05:25:51.465Z,990.00
2018-12-15T05:26:51.418Z,989.99
2018-12-15T05:27:51.371Z,989.94
2018-12-15T05:28:51.327Z,989.90
2018-12-15T05:29:51.285Z,989.93
2018-12-15T05:30:51.240Z,989.92
2018-12-15T05:31:51.201Z,989.94
2018-12-15T05:32:51.148Z,989.91
2018-12-15T05:33:51.106Z,989.90
2018-12-15T05:34:51.062Z,989.88
2018-12-15T05:35:51.020Z,989.87
2018-12-15T05:36:50.977Z,989.88
2018-12-15T05:37:50.933Z,989.87
2018-12-15T05:38:50.885Z,989.87
2018-12-15T05:39:50.835Z,989.87
2018-12-15T05:40:50.792Z,989.82
2018-12-15T05:41:50.748Z,989.84
2018-12-15T05:42:50.708Z,989.81
2018-12-15T05:43:50.664Z,989.86
2018-12-15T05:44:50.620Z,989.83
2018-12-15T05:45:50.572Z,989.84
2018-12-15T05:46:50.531Z,989.85
2018-12-15T05:47:50.479Z,989.88
2018-12-15T05:48:50.441Z,989.92
2018-12-15T05:49:50.396Z,989.91
2018-12-15T05:50:50.346Z,989.88
2018-12-15T05:51:50.300Z,989.91
2018-12-15T05:52:50.255Z,989.91
2018-12-15T05:53:50.212Z,989.97
2018-12-15T05:54:50.175Z,989.90
2018-12-15T05:55:50.128Z,989.87
2018-12-15T05:56:50.085Z,989.87
2018-12-15T05:57:50.038Z,989.91
2018-12-15T05:58:49.994Z,989.94
2018-12-15T05:59:49.943Z,989.98
2018-12-15T06:00:49.900Z,989.96
2018-12-15T06:01:49.855Z,989.98
2018-12-15T06:02:49.813Z,990.00
2018-12-15T06:03:49.794Z,990.00
2018-12-15T06:04:49.720Z,990.00
2018-12-15T06:05:49.678Z,990.00
2018-12-15T06:06:49.634Z,990.03
2018-12-15T06:07:49.592Z,990.00
2018-12-15T06:08:49.548Z,989.97
2018-12-15T06:09:49.501Z,989.97
2018-12-15T06:10:49.454Z,989.96
2018-12-15T06:11:49.407Z,989.97
2018-12-15T06:12:49.363Z,989.95
2018-12-15T06:13:49.321Z,989.96
2018-12-15T06:14:49.279Z,990.01
2018-12-15T06:15:49.235Z,990.00
2018-12-15T06:16:49.191Z,990.05
2018-12-15T06:17:49.144Z,990.03
2018-12-15T06:18:49.096Z,990.03
2018-12-15T06:19:49.050Z,990.05
2018-12-15T06:20:49.015Z,990.05
2018-12-15T06:21:48.966Z,990.08
2018-12-15T06:22:48.919Z,990.07
2018-12-15T06:23:48.872Z,990.09
2018-12-15T06:24:48.829Z,990.08
2018-12-15T06:25:48.785Z,990.10
2018-12-15T06:26:48.745Z,990.10
2018-12-15T06:27:48.699Z,990.11
2018-12-15T06:28:48.655Z,990.12
2018-12-15T06:29:48.608Z,990.13
2018-12-15T06:30:48.561Z,990.17
2018-12-15T06:31:48.514Z,990.15
2018-12-15T06:32:48.473Z,990.17
2018-12-15T06:33:48.431Z,990.15
2018-12-15T06:34:48.384Z,990.17
2018-12-15T06:35:48.343Z,990.13
2018-12-15T06:36:48.294Z,990.15
2018-12-15T06:37:48.250Z,990.16
2018-12-15T06:38:48.205Z,990.11
2018-12-15T06:39:48.162Z,990.10
2018-12-15T06:40:48.118Z,990.12
2018-12-15T06:41:48.071Z,990.13
2018-12-15T06:42:48.028Z,990.11
2018-12-15T06:43:47.977Z,990.07
2018-12-15T06:44:47.934Z,990.06
2018-12-15T06:45:47.889Z,990.10
2018-12-15T06:46:47.850Z,990.04
2018-12-15T06:47:47.802Z,990.04
2018-12-15T06:48:47.760Z,990.03
2018-12-15T06:49:47.715Z,990.03
2018-12-15T06:50:47.663Z,990.03
2018-12-15T06:51:47.624Z,990.05
2018-12-15T06:52:47.580Z,990.03
2018-12-15T06:53:47.537Z,990.02
2018-12-15T06:54:47.487Z,990.05
2018-12-15T06:55:47.448Z,990.03
2018-12-15T06:56:47.400Z,990.02
2018-12-15T06:57:47.351Z,990.00
2018-12-15T06:58:47.311Z,990.02
2018-12-15T06:59:47.265Z,989.97
2018-12-15T07:00:47.224Z,989.96
2018-12-15T07:01:47.252Z,989.93
2018-12-15T07:02:47.138Z,989.87
2018-12-15T07:03:47.084Z,989.86
2018-12-15T07:04:47.039Z,989.89
2018-12-15T07:05:46.997Z,989.82
2018-12-15T07:06:46.961Z,989.85
2018-12-15T07:07:46.907Z,989.84
2018-12-15T07:08:46.860Z,989.86
2018-12-15T07:09:46.814Z,989.85
2018-12-15T07:10:46.774Z,989.85
2018-12-15T07:11:46.727Z,989.82
2018-12-15T07:12:46.685Z,989.82
2018-12-15T07:13:46.640Z,989.83
2018-12-15T07:14:46.589Z,989.81
2018-12-15T07:15:46.547Z,989.80
2018-12-15T07:16:46.502Z,989.82
2018-12-15T07:17:46.456Z,989.78
2018-12-15T07:18:46.415Z,989.81
2018-12-15T07:19:46.366Z,989.77
2018-12-15T07:20:46.324Z,989.80
2018-12-15T07:21:46.281Z,989.83
2018-12-15T07:22:46.295Z,989.80
2018-12-15T07:23:46.187Z,989.84
2018-12-15T07:24:46.145Z,989.80
2018-12-15T07:25:46.102Z,989.86
2018-12-15T07:26:46.050Z,989.81
2018-12-15T07:27:46.008Z,989.84
2018-12-15T07:28:45.963Z,989.80
2018-12-15T07:29:45.917Z,989.77
2018-12-15T07:30:45.877Z,989.79
2018-12-15T07:31:45.830Z,989.85
2018-12-15T07:32:45.788Z,989.84
2018-12-15T07:33:45.770Z,989.82
2018-12-15T07:34:45.693Z,989.86
2018-12-15T07:35:45.652Z,989.83
2018-12-15T07:36:45.604Z,989.88
2018-12-15T07:37:45.558Z,989.89
2018-12-15T07:38:45.520Z,989.93
2018-12-15T07:39:45.471Z,989.92
2018-12-15T07:40:45.425Z,989.95
2018-12-15T07:41:45.378Z,989.94
2018-12-15T07:42:45.339Z,989.91
2018-12-15T07:43:45.292Z,989.91
2018-12-15T07:44:45.248Z,989.96
2018-12-15T07:45:45.205Z,989.95
2018-12-15T07:46:45.156Z,989.97
2018-12-15T07:47:45.112Z,989.97
2018-12-15T07:48:51.186Z,990.00
2018-12-15T07:49:45.020Z,990.01
2018-12-15T07:50:44.981Z,990.00
2018-12-15T07:51:44.935Z,990.01
2018-12-15T07:52:44.890Z,990.01
2018-12-15T07:53:44.847Z,990.01
2018-12-15T07:54:44.797Z,990.02
2018-12-15T07:55:44.752Z,989.99
2018-12-15T07:56:44.710Z,990.01
2018-12-15T07:57:44.668Z,990.04
2018-12-15T07:58:44.617Z,990.05
2018-12-15T07:59:44.574Z,990.07
2018-12-15T08:00:44.528Z,990.05
2018-12-15T08:01:44.485Z,990.07
2018-12-15T08:02:44.442Z,990.10
2018-12-15T08:03:44.397Z,990.13
2018-12-15T08:04:44.351Z,990.09
2018-12-15T08:05:44.313Z,990.09
2018-12-15T08:06:44.257Z,990.09
2018-12-15T08:07:44.216Z,990.05
2018-12-15T08:08:44.172Z,990.01
2018-12-15T08:09:44.125Z,990.02
2018-12-15T08:10:44.085Z,990.03
2018-12-15T08:11:44.038Z,990.01
2018-12-15T08:12:43.994Z,990.04
2018-12-15T08:13:43.945Z,990.02
2018-12-15T08:14:43.906Z,989.97
2018-12-15T08:15:43.860Z,990.00
2018-12-15T08:16:43.815Z,989.99
2018-12-15T08:17:43.773Z,989.96
2018-12-15T08:18:43.720Z,989.99
2018-12-15T08:19:43.679Z,989.96
2018-12-15T08:20:43.635Z,989.99
2018-12-15T08:21:43.590Z,990.01
2018-12-15T08:22:43.548Z,989.98
2018-12-15T08:23:43.502Z,990.04
2018-12-15T08:24:44.050Z,990.05
2018-12-15T08:25:43.415Z,990.00
2018-12-15T08:26:43.364Z,990.03
2018-12-15T08:27:43.328Z,990.05
2018-12-15T08:28:43.278Z,990.06
2018-12-15T08:29:43.238Z,990.06
2018-12-15T08:30:43.186Z,990.05
2018-12-15T08:31:43.141Z,990.09
2018-12-15T08:32:43.099Z,990.14
2018-12-15T08:33:43.050Z,990.13
2018-12-15T08:34:43.011Z,990.17
2018-12-15T08:35:42.964Z,990.16
2018-12-15T08:36:42.920Z,990.15
2018-12-15T08:37:42.879Z,990.15
2018-12-15T08:38:42.825Z,990.10
2018-12-15T08:39:42.781Z,990.15
2018-12-15T08:40:43.337Z,990.11
2018-12-15T08:41:42.692Z,990.12
2018-12-15T08:42:42.654Z,990.10
2018-12-15T08:43:42.608Z,990.09
2018-12-15T08:44:42.559Z,990.10
2018-12-15T08:45:42.513Z,990.07
2018-12-15T08:46:42.475Z,990.07
2018-12-15T08:47:42.428Z,990.08
2018-12-15T08:48:42.382Z,990.07
2018-12-15T08:49:42.341Z,990.09
2018-12-15T08:50:42.290Z,990.15
2018-12-15T08:51:42.571Z,990.15
2018-12-15T08:52:42.202Z,990.18
2018-12-15T08:53:42.154Z,990.10
2018-12-15T08:54:42.118Z,990.12
2018-12-15T08:55:42.073Z,990.14
2018-12-15T08:56:42.025Z,990.07
2018-12-15T08:57:41.981Z,990.11
2018-12-15T08:58:41.930Z,990.11
2018-12-15T08:59:41.888Z,990.08
2018-12-15T09:00:41.845Z,990.11
2018-12-15T09:01:41.803Z,990.11
2018-12-15T09:02:41.751Z,990.13
2018-12-15T09:03:41.708Z,990.15
2018-12-15T09:04:41.664Z,990.15
2018-12-15T09:05:41.618Z,990.15
2018-12-15T09:06:41.582Z,990.21
2018-12-15T09:07:41.534Z,990.18
2018-12-15T09:08:41.487Z,990.21
2018-12-15T09:09:41.446Z,990.16
2018-12-15T09:10:41.391Z,990.23
2018-12-15T09:11:41.350Z,990.23
2018-12-15T09:12:41.305Z,990.21
2018-12-15T09:13:41.260Z,990.19
2018-12-15T09:14:41.220Z,990.21
2018-12-15T09:15:41.172Z,990.14
2018-12-15T09:16:41.126Z,990.24
2018-12-15T09:17:41.079Z,990.24
2018-12-15T09:18:41.040Z,990.16
2018-12-15T09:19:40.994Z,990.24
2018-12-15T09:20:40.949Z,990.22
2018-12-15T09:21:40.907Z,990.26
2018-12-15T09:22:40.855Z,990.28
2018-12-15T09:23:40.812Z,990.27
2018-12-15T09:24:40.768Z,990.26
2018-12-15T09:25:40.721Z,990.26
2018-12-15T09:26:40.681Z,990.27
2018-12-15T09:27:40.634Z,990.25
2018-12-15T09:28:40.590Z,990.28
2018-12-15T09:29:40.548Z,990.24
2018-12-15T09:30:40.496Z,990.29
2018-12-15T09:31:40.458Z,990.34
2018-12-15T09:32:40.419Z,990.36
2018-12-15T09:33:40.369Z,990.34
2018-12-15T09:34:40.318Z,990.36
2018-12-15T09:35:40.274Z,990.36
2018-12-15T09:36:40.230Z,990.38
2018-12-15T09:37:40.184Z,990.35
2018-12-15T09:38:40.146Z,990.33
2018-12-15T09:39:40.098Z,990.40
2018-12-15T09:40:40.052Z,990.36
2018-12-15T09:41:40.010Z,990.36
2018-12-15T09:42:39.961Z,990.38
2018-12-15T09:43:39.917Z,990.33
2018-12-15T09:44:39.878Z,990.37
2018-12-15T09:45:39.828Z,990.33
2018-12-15T09:46:39.788Z,990.37
2018-12-15T09:47:39.739Z,990.37
2018-12-15T09:48:39.692Z,990.34
2018-12-15T09:49:39.648Z,990.34
2018-12-15T09:50:39.606Z,990.32
2018-12-15T09:51:39.560Z,990.28
2018-12-15T09:52:39.515Z,990.26
2018-12-15T09:53:39.472Z,990.22
2018-12-15T09:54:39.421Z,990.19
2018-12-15T09:55:39.379Z,990.18
2018-12-15T09:56:39.333Z,990.17
2018-12-15T09:57:39.291Z,990.12
2018-12-15T09:58:39.247Z,990.14
2018-12-15T09:59:39.202Z,990.13
2018-12-15T10:00:39.157Z,990.09
2018-12-15T10:01:39.115Z,990.06
2018-12-15T10:02:39.063Z,990.10
2018-12-15T10:03:39.021Z,990.08
2018-12-15T10:04:38.979Z,990.04
2018-12-15T10:05:38.937Z,990.10
2018-12-15T10:20:03.178Z,989.98
2018-12-15T10:21:03.108Z,989.92
2018-12-15T10:22:03.112Z,989.90
2018-12-15T10:23:03.011Z,989.87
2018-12-15T10:24:02.959Z,989.82
2018-12-15T10:25:02.916Z,989.79
2018-12-15T10:26:02.870Z,989.84
2018-12-15T10:27:02.826Z,989.83
2018-12-15T10:28:02.779Z,989.82
2018-12-15T10:29:02.733Z,989.81
2018-12-15T10:30:02.683Z,989.73
2018-12-15T10:31:11.315Z,989.78
2018-12-15T10:33:07.039Z,989.68
2018-12-15T10:34:06.964Z,989.66
2018-12-15T10:35:06.915Z,989.63
2018-12-15T10:36:06.876Z,989.62
2018-12-15T10:37:06.832Z,989.61
2018-12-15T10:38:06.789Z,989.58
2018-12-15T10:39:06.751Z,989.53
2018-12-15T10:40:06.694Z,989.53
2018-12-15T10:41:06.648Z,989.50
2018-12-15T10:42:06.603Z,989.47
2018-12-15T10:43:06.562Z,989.56
2018-12-15T10:44:06.516Z,989.49
2018-12-15T10:45:06.473Z,989.43
2018-12-15T10:46:06.420Z,989.40
2018-12-15T10:47:06.378Z,989.36
2018-12-15T10:48:06.332Z,989.36
2018-12-15T10:49:06.290Z,989.26
2018-12-15T10:50:06.248Z,989.22
2018-12-15T10:51:06.204Z,989.18
2018-12-15T10:52:06.162Z,989.20
2018-12-15T10:53:06.112Z,989.17
2018-12-15T10:54:06.062Z,989.19
2018-12-15T10:55:06.017Z,989.16
2018-12-15T10:56:05.974Z,989.14
2018-12-15T10:57:05.967Z,989.10
2018-12-15T10:58:05.889Z,989.09
2018-12-15T10:59:05.838Z,989.09
2018-12-15T11:00:05.800Z,989.09
2018-12-15T11:01:05.757Z,989.10
2018-12-15T11:02:05.713Z,989.10
2018-12-15T11:03:05.667Z,989.08
2018-12-15T11:04:05.622Z,989.03
2018-12-15T11:05:05.578Z,989.03
2018-12-15T11:06:05.591Z,989.05
2018-12-15T11:07:05.483Z,989.03
2018-12-15T11:08:05.462Z,989.01
2018-12-15T11:09:05.399Z,989.03
2018-12-15T11:10:05.354Z,989.09
2018-12-15T11:11:05.310Z,989.08
2018-12-15T11:12:05.266Z,989.09
2018-12-15T11:13:05.222Z,989.07
2018-12-15T11:14:05.170Z,989.05
2018-12-15T11:15:05.132Z,989.11
2018-12-15T11:16:05.085Z,989.08
2018-12-15T11:17:05.038Z,989.10
2018-12-15T11:18:04.994Z,989.05
2018-12-15T11:19:04.947Z,989.04
2018-12-15T11:20:04.907Z,989.05
2018-12-15T11:21:04.863Z,989.08
2018-12-15T11:22:04.823Z,989.08
2018-12-15T11:23:04.776Z,989.07
2018-12-15T11:24:04.731Z,989.02
2018-12-15T11:25:04.684Z,989.01
2018-12-15T11:26:04.639Z,988.97
2018-12-15T11:27:04.594Z,988.96
2018-12-15T11:28:04.552Z,988.91
2018-12-15T11:29:04.508Z,988.96
2018-12-15T11:30:04.468Z,988.95
2018-12-15T11:31:04.421Z,988.97
2018-12-15T11:32:04.373Z,988.98
2018-12-15T11:33:04.330Z,989.00
2018-12-15T11:34:04.290Z,988.96
2018-12-15T11:35:04.245Z,988.95
2018-12-15T11:36:04.200Z,988.91
2018-12-15T11:37:04.151Z,988.90
2018-12-15T11:38:04.106Z,988.87
2018-12-15T11:39:04.062Z,988.82
2018-12-15T11:40:04.020Z,988.83
2018-12-15T11:41:03.975Z,988.81
2018-12-15T11:42:03.938Z,988.75
2018-12-15T11:43:03.903Z,988.81
2018-12-15T11:44:03.842Z,988.76
2018-12-15T11:45:03.800Z,988.74
2018-12-15T11:46:03.749Z,988.72
2018-12-15T11:47:03.711Z,988.66
2018-12-15T11:48:03.687Z,988.61
2018-12-15T11:49:03.621Z,988.63
2018-12-15T11:50:03.571Z,988.52
2018-12-15T11:51:03.527Z,988.51
2018-12-15T11:52:03.491Z,988.51
2018-12-15T11:53:03.445Z,988.52
2018-12-15T11:54:03.434Z,988.50
2018-12-15T11:55:03.357Z,988.51
2018-12-15T11:56:03.312Z,988.52
2018-12-15T11:57:03.265Z,988.56
2018-12-15T11:58:03.216Z,988.51
2018-12-15T12:00:03.132Z,988.50
2018-12-15T12:01:03.104Z,988.49
2018-12-15T12:02:03.086Z,988.47
2018-12-15T12:03:02.994Z,988.49
2018-12-15T12:04:02.969Z,988.42
2018-12-15T12:05:02.910Z,988.39
2018-12-15T12:06:02.867Z,988.36
2018-12-15T12:07:02.822Z,988.34
2018-12-15T12:08:02.776Z,988.22
2018-12-15T12:09:02.730Z,988.23
2018-12-15T12:10:02.687Z,988.21
2018-12-15T12:11:02.644Z,988.14
2018-12-15T12:12:02.596Z,988.17
2018-12-15T12:13:02.557Z,988.13
2018-12-15T12:14:02.517Z,988.20
2018-12-15T12:15:02.471Z,988.16
2018-12-15T12:16:02.420Z,988.23
2018-12-15T12:17:02.374Z,988.23
2018-12-15T12:18:02.327Z,988.23
2018-12-15T12:19:02.289Z,988.21
2018-12-15T12:20:02.244Z,988.24
2018-12-15T12:21:02.197Z,988.27
2018-12-15T12:22:02.148Z,988.27
2018-12-15T12:23:02.104Z,988.28
2018-12-15T12:24:02.063Z,988.31
2018-12-15T12:25:02.022Z,988.32
2018-12-15T12:26:01.979Z,988.32
2018-12-15T12:27:01.937Z,988.34
2018-12-15T12:28:01.887Z,988.34
2018-12-15T12:29:01.842Z,988.35
2018-12-15T12:30:01.805Z,988.36
2018-12-15T12:31:01.753Z,988.35
2018-12-15T12:32:01.707Z,988.39
2018-12-15T12:33:01.667Z,988.29
2018-12-15T12:34:01.622Z,988.35
2018-12-15T12:35:01.573Z,988.28
2018-12-15T12:36:01.532Z,988.25
2018-12-15T12:37:01.488Z,988.20
2018-12-15T12:38:01.445Z,988.14
2018-12-15T12:39:01.410Z,988.14
2018-12-15T12:40:01.404Z,988.11
2018-12-15T12:41:01.319Z,988.08
2018-12-15T12:42:01.264Z,988.11
2018-12-15T12:43:01.220Z,988.08
2018-12-15T12:44:01.176Z,988.10
2018-12-15T12:45:01.141Z,988.00
2018-12-15T12:46:01.092Z,988.01
2018-12-15T12:47:01.050Z,988.01
2018-12-15T12:48:01.001Z,988.02
2018-12-15T12:49:00.955Z,988.01
2018-12-15T12:50:00.916Z,988.00
2018-12-15T12:51:00.874Z,988.00
2018-12-15T12:52:00.826Z,987.91
2018-12-15T12:53:00.794Z,987.97
2018-12-15T12:54:00.736Z,987.96
2018-12-15T12:55:00.754Z,987.96
2018-12-15T12:56:00.646Z,987.98
2018-12-15T12:57:00.604Z,987.94